createdAt,value
2022-09-23T00:01:19.787Z,3.75
2022-09-23T00:03:47.208Z,3.70
2022-09-23T00:06:20.977Z,3.90
2022-09-23T00:08:49.789Z,4.07
2022-09-23T00:11:20.485Z,3.40
2022-09-23T00:13:50.687Z,3.70
2022-09-23T00:16:23.399Z,3.75
2022-09-23T00:18:50.891Z,3.60
2022-09-23T00:21:19.917Z,3.65
2022-09-23T00:23:47.199Z,3.55
2022-09-23T00:26:17.193Z,3.55
2022-09-23T00:28:44.072Z,3.40
2022-09-23T00:31:21.630Z,3.50
2022-09-23T00:33:56.811Z,3.80
2022-09-23T00:36:25.378Z,4.20
2022-09-23T00:38:53.609Z,3.80
2022-09-23T00:41:21.383Z,3.75
2022-09-23T00:43:51.272Z,4.00
2022-09-23T00:46:25.274Z,4.00
2022-09-23T00:49:01.544Z,4.18
2022-09-23T00:51:35.558Z,4.10
2022-09-23T00:54:03.470Z,4.25
2022-09-23T00:56:31.391Z,4.07
2022-09-23T00:58:59.583Z,3.45
2022-09-23T01:01:26.836Z,4.07
2022-09-23T01:03:54.806Z,3.35
2022-09-23T01:06:21.701Z,4.07
2022-09-23T01:08:49.121Z,3.78
2022-09-23T01:12:11.112Z,4.13
2022-09-23T01:14:53.502Z,4.22
2022-09-23T01:17:28.061Z,3.80
2022-09-23T01:20:16.270Z,3.85
2022-09-23T01:23:01.374Z,3.80
2022-09-23T01:28:21.615Z,3.65
2022-09-23T01:31:19.146Z,3.97
2022-09-23T01:34:07.105Z,4.30
2022-09-23T01:37:25.036Z,4.10
2022-09-23T01:40:28.741Z,4.10
2022-09-23T01:43:11.468Z,4.13
2022-09-23T01:45:48.557Z,3.97
2022-09-23T01:48:42.644Z,3.95
2022-09-23T01:51:30.774Z,4.07
2022-09-23T01:54:04.871Z,4.00
2022-09-23T01:56:58.794Z,4.10
2022-09-23T01:59:38.665Z,3.90
2022-09-23T02:02:16.126Z,3.40
2022-09-23T02:04:56.973Z,4.20
2022-09-23T02:07:40.244Z,4.07
2022-09-23T02:10:25.098Z,3.80
2022-09-23T02:12:58.556Z,4.10
2022-09-23T02:15:36.550Z,3.90
2022-09-23T02:18:12.713Z,4.07
2022-09-23T02:20:40.219Z,4.25
2022-09-23T02:23:33.986Z,4.00
2022-09-23T02:26:32.887Z,4.55
2022-09-23T02:29:06.268Z,4.53
2022-09-23T02:31:48.678Z,4.10
2022-09-23T02:34:32.811Z,4.15
2022-09-23T02:37:43.988Z,3.83
2022-09-23T02:40:42.009Z,3.80
2022-09-23T02:43:41.421Z,4.50
2022-09-23T02:46:08.587Z,3.75
2022-09-23T02:48:44.590Z,4.07
2022-09-23T02:51:12.851Z,3.90
2022-09-23T02:53:40.374Z,4.90
2022-09-23T02:56:20.173Z,4.32
2022-09-23T02:58:49.880Z,4.40
2022-09-23T03:01:32.523Z,4.20
2022-09-23T03:04:40.393Z,4.30
2022-09-23T03:08:04.981Z,4.50
2022-09-23T03:10:49.846Z,4.55
2022-09-23T03:13:43.297Z,4.95
2022-09-23T03:16:39.966Z,4.75
2022-09-23T03:19:41.457Z,4.78
2022-09-23T03:22:22.894Z,5.03
2022-09-23T03:24:53.988Z,4.63
2022-09-23T03:27:26.855Z,4.10
2022-09-23T03:29:55.160Z,4.70
2022-09-23T03:32:24.980Z,4.70
2022-09-23T03:34:56.196Z,4.45
2022-09-23T03:37:32.312Z,4.57
2022-09-23T03:40:35.624Z,5.28
2022-09-23T03:43:04.672Z,4.35
2022-09-23T03:45:33.591Z,4.63
2022-09-23T03:48:01.006Z,4.43
2022-09-23T03:50:28.336Z,4.35
2022-09-23T03:52:55.730Z,4.32
2022-09-23T03:55:22.614Z,4.43
2022-09-23T03:57:49.584Z,5.43
2022-09-23T04:00:16.991Z,4.55
2022-09-23T04:02:44.238Z,4.53
2022-09-23T04:05:13.486Z,4.85
2022-09-23T04:07:41.260Z,4.72
2022-09-23T04:10:10.010Z,4.63
2022-09-23T04:12:37.287Z,5.07
2022-09-23T04:15:05.017Z,4.70
2022-09-23T04:17:31.918Z,4.78
2022-09-23T04:19:58.741Z,5.57
2022-09-23T04:22:25.749Z,5.25
2022-09-23T04:24:52.584Z,4.95
2022-09-23T04:27:19.604Z,4.38
2022-09-23T04:29:46.469Z,4.75
2022-09-23T04:32:13.380Z,5.15
2022-09-23T04:34:40.303Z,4.70
2022-09-23T04:37:07.164Z,4.70
2022-09-23T04:39:34.042Z,6.43
2022-09-23T04:42:00.972Z,4.88
2022-09-23T04:44:28.359Z,4.70
2022-09-23T04:46:55.317Z,4.80
2022-09-23T04:49:22.248Z,5.00
2022-09-23T04:51:49.036Z,5.10
2022-09-23T04:54:16.018Z,4.50
2022-09-23T04:56:43.126Z,4.75
2022-09-23T04:59:10.139Z,5.15
2022-09-23T05:01:38.443Z,5.28
2022-09-23T05:04:11.055Z,5.30
2022-09-23T05:06:38.330Z,5.05
2022-09-23T05:09:08.503Z,5.30
2022-09-23T05:11:35.771Z,4.80
2022-09-23T05:14:03.100Z,4.88
2022-09-23T05:16:30.148Z,4.70
2022-09-23T05:18:58.052Z,5.25
2022-09-23T05:21:28.565Z,5.50
2022-09-23T05:23:59.104Z,4.93
2022-09-23T05:26:29.291Z,5.38
2022-09-23T05:28:57.019Z,5.07
2022-09-23T05:31:27.609Z,4.85
2022-09-23T05:34:03.823Z,4.93
2022-09-23T05:36:37.951Z,5.30
2022-09-23T05:39:06.819Z,5.13
2022-09-23T05:41:34.151Z,5.40
2022-09-23T05:44:01.710Z,5.50
2022-09-23T05:46:30.879Z,4.72
2022-09-23T05:49:02.656Z,5.30
2022-09-23T05:51:31.807Z,4.85
2022-09-23T05:54:00.277Z,4.90
2022-09-23T05:56:28.707Z,5.18
2022-09-23T05:58:58.589Z,5.60
2022-09-23T06:01:32.260Z,4.80
2022-09-23T06:04:01.628Z,4.88
2022-09-23T06:06:41.485Z,4.70
2022-09-23T06:09:13.563Z,6.10
2022-09-23T06:11:41.726Z,5.90
2022-09-23T06:14:13.306Z,5.95
2022-09-23T06:16:40.330Z,5.95
2022-09-23T06:19:07.704Z,6.60
2022-09-23T06:21:37.940Z,5.70
2022-09-23T06:24:06.375Z,5.80
2022-09-23T06:26:35.158Z,5.53
2022-09-23T06:29:04.612Z,5.75
2022-09-23T06:31:32.152Z,5.50
2022-09-23T06:34:10.106Z,5.13
2022-09-23T06:36:43.763Z,5.10
2022-09-23T06:39:11.397Z,5.40
2022-09-23T06:41:39.158Z,5.43
2022-09-23T06:44:06.225Z,5.57
2022-09-23T06:46:33.421Z,5.60
2022-09-23T06:49:01.111Z,5.68
2022-09-23T06:51:27.946Z,5.57
2022-09-23T06:53:55.656Z,5.25
2022-09-23T06:56:23.715Z,5.03
2022-09-23T06:58:52.861Z,5.38
2022-09-23T07:01:20.157Z,5.00
2022-09-23T07:03:48.597Z,5.88
2022-09-23T07:06:17.770Z,5.03
2022-09-23T07:08:47.502Z,5.15
2022-09-23T07:11:15.748Z,4.97
2022-09-23T07:13:43.034Z,5.03
2022-09-23T07:16:11.533Z,5.38
2022-09-23T07:18:39.534Z,4.47
2022-09-23T07:21:16.229Z,5.45
2022-09-23T07:23:44.273Z,5.00
2022-09-23T07:26:12.055Z,4.68
2022-09-23T07:28:39.451Z,5.82
2022-09-23T07:31:13.842Z,5.40
2022-09-23T07:33:44.121Z,7.53
2022-09-23T07:36:14.708Z,8.35
2022-09-23T07:38:45.525Z,6.93
2022-09-23T07:41:19.086Z,6.20
2022-09-23T07:43:47.556Z,9.82
2022-09-23T07:46:17.561Z,12.23
2022-09-23T07:48:45.979Z,7.30
2022-09-23T07:51:18.704Z,10.20
2022-09-23T07:53:51.746Z,8.57
2022-09-23T07:56:20.181Z,7.18
2022-09-23T07:59:00.454Z,10.10
2022-09-23T08:01:39.905Z,7.95
2022-09-23T08:04:17.993Z,6.75
2022-09-23T08:07:01.030Z,6.53
2022-09-23T08:09:41.357Z,6.00
2022-09-23T08:12:15.996Z,6.65
2022-09-23T08:14:43.686Z,5.40
2022-09-23T08:17:13.177Z,6.47
2022-09-23T08:19:40.019Z,5.50
2022-09-23T08:22:06.858Z,5.75
2022-09-23T08:24:33.711Z,6.70
2022-09-23T08:27:00.824Z,6.28
2022-09-23T08:29:27.739Z,5.65
2022-09-23T08:31:54.763Z,5.90
2022-09-23T08:34:23.763Z,12.30
2022-09-23T08:36:52.411Z,14.25
2022-09-23T08:39:20.724Z,6.00
2022-09-23T08:41:53.842Z,6.07
2022-09-23T08:45:00.169Z,6.10
2022-09-23T08:47:43.756Z,5.85
2022-09-23T08:50:23.119Z,5.47
2022-09-23T08:53:01.896Z,6.03
2022-09-23T08:55:40.649Z,5.75
2022-09-23T08:58:25.555Z,5.65
2022-09-23T09:01:22.501Z,5.70
2022-09-23T09:04:23.500Z,5.63
2022-09-23T09:07:32.194Z,5.60
2022-09-23T09:10:03.529Z,7.07
2022-09-23T09:13:09.188Z,14.93
2022-09-23T09:16:11.505Z,11.77
2022-09-23T09:18:55.352Z,20.95
2022-09-23T09:21:32.452Z,7.10
2022-09-23T09:24:00.348Z,5.65
2022-09-23T09:26:34.251Z,6.57
2022-09-23T09:29:23.756Z,6.18
2022-09-23T09:31:57.648Z,6.27
2022-09-23T09:34:34.367Z,5.65
2022-09-23T09:37:24.851Z,5.68
2022-09-23T09:39:51.924Z,5.47
2022-09-23T09:42:30.978Z,5.50
2022-09-23T09:45:19.806Z,5.80
2022-09-23T09:48:13.615Z,5.45
2022-09-23T09:50:53.385Z,5.70
2022-09-23T09:53:29.379Z,5.63
2022-09-23T09:56:19.085Z,5.70
2022-09-23T09:58:53.554Z,5.20
2022-09-23T10:01:27.586Z,5.50
2022-09-23T10:03:59.535Z,5.50
2022-09-23T10:06:35.786Z,5.88
2022-09-23T10:09:05.623Z,5.78
2022-09-23T10:11:33.350Z,5.93
2022-09-23T10:14:02.792Z,6.28
2022-09-23T10:16:31.891Z,6.45
2022-09-23T10:19:04.422Z,5.60
2022-09-23T10:21:37.146Z,6.10
2022-09-23T10:24:07.115Z,5.50
2022-09-23T10:26:42.247Z,6.05
2022-09-23T10:29:39.298Z,5.50
2022-09-23T10:32:30.079Z,5.40
2022-09-23T10:35:13.360Z,5.60
2022-09-23T10:38:07.699Z,6.07
2022-09-23T10:41:02.135Z,6.15
2022-09-23T10:44:01.707Z,5.10
2022-09-23T10:46:53.457Z,5.10
2022-09-23T10:49:57.662Z,4.85
2022-09-23T10:52:49.263Z,5.63
2022-09-23T10:55:36.861Z,5.07
2022-09-23T10:58:43.701Z,5.63
2022-09-23T11:01:29.761Z,5.55
2022-09-23T11:04:34.966Z,5.18
2022-09-23T11:07:21.073Z,5.20
2022-09-23T11:10:29.067Z,5.28
2022-09-23T11:13:45.629Z,4.88
2022-09-23T11:16:27.138Z,5.03
2022-09-23T11:19:25.715Z,5.18
2022-09-23T11:22:37.446Z,5.00
2022-09-23T11:25:50.602Z,4.63
2022-09-23T11:29:03.538Z,5.07
2022-09-23T11:32:03.926Z,4.68
2022-09-23T11:34:52.609Z,4.97
2022-09-23T11:37:28.461Z,6.75
2022-09-23T11:40:15.649Z,5.18
2022-09-23T11:43:00.784Z,5.10
2022-09-23T11:48:50.748Z,4.80
2022-09-23T11:52:22.029Z,4.65
2022-09-23T11:55:17.636Z,5.30
2022-09-23T11:58:01.138Z,4.95
2022-09-23T12:00:34.407Z,4.65
2022-09-23T12:03:42.914Z,4.47
2022-09-23T12:06:23.748Z,4.53
2022-09-23T12:08:57.580Z,4.93
2022-09-23T12:11:46.132Z,5.05
2022-09-23T12:14:14.458Z,4.70
2022-09-23T12:17:27.605Z,4.07
2022-09-23T12:20:31.274Z,4.55
2022-09-23T12:23:24.348Z,4.25
2022-09-23T12:26:02.151Z,3.80
2022-09-23T12:28:37.810Z,4.13
2022-09-23T12:31:11.705Z,4.28
2022-09-23T12:33:39.337Z,3.90
2022-09-23T12:36:12.260Z,4.10
2022-09-23T12:38:48.618Z,3.88
2022-09-23T12:41:41.455Z,3.80
2022-09-23T12:44:11.155Z,3.85
2022-09-23T12:46:39.025Z,3.70
2022-09-23T12:49:43.718Z,3.90
2022-09-23T12:52:16.459Z,3.50
2022-09-23T12:55:08.168Z,3.88
2022-09-23T12:57:34.954Z,3.80
2022-09-23T13:00:13.780Z,4.28
2022-09-23T13:02:48.034Z,3.80
2022-09-23T13:05:44.625Z,3.58
2022-09-23T13:08:22.585Z,4.07
2022-09-23T13:10:55.948Z,4.55
2022-09-23T13:13:33.083Z,4.82
2022-09-23T13:16:31.427Z,4.68
2022-09-23T13:19:04.590Z,4.20
2022-09-23T13:21:43.816Z,4.93
2022-09-23T13:24:13.634Z,4.75
2022-09-23T13:26:50.406Z,4.75
2022-09-23T13:29:33.330Z,4.47
2022-09-23T13:32:02.546Z,5.43
2022-09-23T13:34:33.861Z,5.65
2022-09-23T13:37:22.179Z,6.35
2022-09-23T13:39:50.260Z,8.70
2022-09-23T13:42:39.878Z,8.20
2022-09-23T13:45:18.689Z,7.90
2022-09-23T13:47:48.553Z,13.70
2022-09-23T13:50:36.996Z,7.43
2022-09-23T13:53:12.179Z,8.20
2022-09-23T13:55:40.025Z,5.40
2022-09-23T13:58:21.158Z,4.88
2022-09-23T14:00:49.354Z,5.30
2022-09-23T14:03:37.051Z,5.35
2022-09-23T14:06:10.191Z,4.85
2022-09-23T14:08:43.486Z,4.70
2022-09-23T14:11:20.590Z,5.10
2022-09-23T14:13:54.221Z,5.28
2022-09-23T14:16:25.478Z,12.38
2022-09-23T14:18:57.939Z,9.05
2022-09-23T14:21:39.665Z,9.82
2022-09-23T14:24:20.877Z,5.10
2022-09-23T14:26:53.462Z,6.13
2022-09-23T14:29:31.047Z,8.00
2022-09-23T14:32:06.934Z,6.47
2022-09-23T14:35:04.043Z,5.70
2022-09-23T14:37:57.441Z,6.20
2022-09-23T14:40:37.604Z,5.22
2022-09-23T14:43:28.330Z,6.07
2022-09-23T14:45:59.142Z,6.00
2022-09-23T14:48:35.802Z,4.80
2022-09-23T14:51:06.664Z,5.07
2022-09-23T14:53:40.984Z,5.18
2022-09-23T14:56:07.873Z,5.45
2022-09-23T14:58:52.961Z,5.47
2022-09-23T15:01:32.465Z,5.88
2022-09-23T15:04:22.861Z,5.38
2022-09-23T15:06:53.621Z,4.70
2022-09-23T15:09:36.327Z,5.20
2022-09-23T15:12:14.894Z,5.20
2022-09-23T15:14:51.539Z,5.95
2022-09-23T15:17:24.387Z,4.90
2022-09-23T15:19:57.928Z,5.90
2022-09-23T15:22:26.265Z,5.20
2022-09-23T15:24:56.432Z,5.72
2022-09-23T15:27:32.034Z,5.40
2022-09-23T15:30:15.658Z,5.80
2022-09-23T15:32:46.802Z,5.50
2022-09-23T15:35:27.941Z,5.35
2022-09-23T15:38:01.763Z,5.60
2022-09-23T15:40:35.278Z,5.78
2022-09-23T15:43:23.305Z,5.60
2022-09-23T15:45:57.300Z,5.43
2022-09-23T15:48:31.747Z,6.05
2022-09-23T15:51:06.908Z,5.35
2022-09-23T15:53:34.803Z,5.85
2022-09-23T15:56:02.141Z,5.50
2022-09-23T15:58:29.341Z,7.57
2022-09-23T16:00:57.419Z,6.97
2022-09-23T16:03:28.617Z,6.78
2022-09-23T16:06:00.634Z,6.30
2022-09-23T16:08:28.906Z,6.60
2022-09-23T16:10:56.630Z,6.22
2022-09-23T16:13:23.605Z,5.65
2022-09-23T16:15:50.639Z,5.97
2022-09-23T16:18:17.605Z,6.65
2022-09-23T16:20:47.709Z,5.40
2022-09-23T16:23:35.679Z,5.88
2022-09-23T16:26:24.324Z,5.93
2022-09-23T16:28:54.789Z,5.93
2022-09-23T16:31:25.255Z,5.30
2022-09-23T16:33:53.530Z,5.20
2022-09-23T16:36:26.970Z,6.10
2022-09-23T16:38:55.659Z,6.00
2022-09-23T16:41:24.437Z,5.07
2022-09-23T16:43:52.975Z,5.90
2022-09-23T16:46:21.006Z,6.10
2022-09-23T16:48:52.334Z,6.15
2022-09-23T16:51:27.253Z,6.07
2022-09-23T16:53:56.141Z,5.57
2022-09-23T16:56:29.139Z,5.40
2022-09-23T16:58:57.142Z,5.70
2022-09-23T17:01:48.206Z,5.80
2022-09-23T17:04:17.903Z,6.68
2022-09-23T17:06:52.876Z,6.35
2022-09-23T17:09:22.909Z,6.70
2022-09-23T17:12:01.462Z,7.78
2022-09-23T17:14:31.500Z,7.10
2022-09-23T17:16:59.076Z,7.30
2022-09-23T17:19:26.105Z,7.22
2022-09-23T17:21:53.907Z,7.68
2022-09-23T17:24:20.977Z,6.50
2022-09-23T17:26:52.155Z,7.60
2022-09-23T17:29:20.278Z,7.20
2022-09-23T17:31:47.216Z,8.05
2022-09-23T17:34:14.177Z,7.63
2022-09-23T17:36:41.087Z,7.85
2022-09-23T17:39:08.098Z,7.03
2022-09-23T17:41:35.050Z,7.07
2022-09-23T17:44:02.237Z,7.05
2022-09-23T17:46:30.249Z,6.97
2022-09-23T17:48:57.770Z,7.10
2022-09-23T17:51:25.628Z,7.50
2022-09-23T17:53:52.611Z,7.38
2022-09-23T17:56:30.087Z,7.05
2022-09-23T17:59:01.958Z,6.55
2022-09-23T18:01:29.554Z,7.20
2022-09-23T18:03:59.578Z,7.20
2022-09-23T18:06:31.765Z,7.53
2022-09-23T18:09:06.772Z,8.80
2022-09-23T18:11:37.758Z,7.43
2022-09-23T18:14:18.886Z,7.65
2022-09-23T18:16:50.921Z,7.30
2022-09-23T18:19:21.733Z,7.50
2022-09-23T18:21:56.076Z,7.35
2022-09-23T18:24:32.686Z,7.40
2022-09-23T18:27:01.278Z,7.43
2022-09-23T18:29:28.606Z,6.97
2022-09-23T18:31:55.739Z,8.10
2022-09-23T18:34:23.700Z,7.97
2022-09-23T18:36:50.751Z,7.78
2022-09-23T18:39:17.679Z,8.48
2022-09-23T18:41:44.739Z,7.65
2022-09-23T18:44:11.748Z,7.68
2022-09-23T18:46:38.811Z,7.90
2022-09-23T18:49:24.606Z,8.13
2022-09-23T18:51:57.566Z,8.45
2022-09-23T18:54:27.854Z,8.80
2022-09-23T18:56:56.128Z,8.43
2022-09-23T18:59:27.948Z,7.82
2022-09-23T19:01:56.207Z,7.97
2022-09-23T19:04:25.545Z,8.80
2022-09-23T19:06:53.948Z,9.02
2022-09-23T19:09:21.020Z,8.88
2022-09-23T19:11:52.231Z,9.05
2022-09-23T19:14:19.743Z,9.00
2022-09-23T19:16:49.028Z,9.20
2022-09-23T19:19:16.071Z,9.23
2022-09-23T19:21:43.287Z,8.77
2022-09-23T19:24:15.665Z,9.40
2022-09-23T19:26:43.740Z,10.07
2022-09-23T19:29:16.751Z,10.30
2022-09-23T19:31:44.042Z,10.13
2022-09-23T19:34:28.989Z,10.15
2022-09-23T19:36:59.949Z,10.00
2022-09-23T19:39:31.172Z,9.82
2022-09-23T19:41:58.987Z,9.98
2022-09-23T19:44:26.938Z,10.20
2022-09-23T19:46:56.877Z,9.90
2022-09-23T19:49:25.258Z,10.13
2022-09-23T19:51:55.523Z,9.82
2022-09-23T19:54:23.505Z,9.75
2022-09-23T19:56:50.787Z,9.77
2022-09-23T19:59:19.416Z,10.70
2022-09-23T20:01:49.919Z,10.70
2022-09-23T20:04:17.132Z,10.38
2022-09-23T20:06:45.990Z,9.25
2022-09-23T20:09:13.014Z,9.77
2022-09-23T20:11:40.731Z,9.60
2022-09-23T20:14:08.015Z,9.75
2022-09-23T20:16:37.191Z,9.45
2022-09-23T20:19:05.651Z,8.85
2022-09-23T20:21:33.898Z,9.27
2022-09-23T20:24:01.807Z,9.13
2022-09-23T20:26:47.037Z,9.52
2022-09-23T20:29:15.358Z,9.73
2022-09-23T20:31:42.307Z,9.82
2022-09-23T20:34:10.481Z,9.52
2022-09-23T20:36:39.249Z,8.52
2022-09-23T20:39:06.293Z,9.63
2022-09-23T20:41:37.637Z,9.02
2022-09-23T20:44:09.508Z,9.35
2022-09-23T20:46:36.581Z,9.88
2022-09-23T20:49:04.710Z,10.23
2022-09-23T20:51:34.872Z,9.35
2022-09-23T20:54:02.005Z,10.23
2022-09-23T20:56:29.280Z,9.95
2022-09-23T20:59:01.017Z,10.70
2022-09-23T21:01:28.191Z,10.30
2022-09-23T21:03:55.995Z,9.98
2022-09-23T21:06:26.257Z,10.18
2022-09-23T21:08:54.665Z,10.55
2022-09-23T21:11:22.537Z,10.07
2022-09-23T21:13:51.754Z,9.63
2022-09-23T21:16:22.406Z,10.20
2022-09-23T21:18:51.327Z,9.95
2022-09-23T21:21:19.808Z,10.68
2022-09-23T21:23:47.567Z,11.20
2022-09-23T21:26:19.383Z,10.50
2022-09-23T21:28:57.835Z,10.20
2022-09-23T21:31:34.371Z,10.48
2022-09-23T21:34:05.075Z,9.60
2022-09-23T21:36:37.070Z,9.77
2022-09-23T21:39:05.985Z,11.15
2022-09-23T21:41:33.498Z,9.20
2022-09-23T21:44:04.635Z,10.20
2022-09-23T21:46:35.517Z,10.23
2022-09-23T21:49:03.663Z,9.80
2022-09-23T21:51:40.802Z,9.55
2022-09-23T21:54:17.420Z,8.82
2022-09-23T21:56:44.818Z,10.00
2022-09-23T21:59:11.873Z,9.38
2022-09-23T22:01:44.534Z,9.38
2022-09-23T22:04:18.366Z,9.60
2022-09-23T22:06:46.327Z,9.85
2022-09-23T22:09:17.720Z,9.50
2022-09-23T22:12:04.023Z,9.85
2022-09-23T22:14:31.402Z,8.98
2022-09-23T22:17:02.258Z,8.77
2022-09-23T22:19:35.476Z,8.68
2022-09-23T22:22:08.567Z,9.00
2022-09-23T22:24:35.388Z,9.80
2022-09-23T22:27:02.276Z,9.57
2022-09-23T22:29:58.185Z,9.27
2022-09-23T22:32:55.271Z,9.30
2022-09-23T22:35:22.342Z,8.60
2022-09-23T22:37:49.193Z,9.15
2022-09-23T22:40:16.316Z,9.15
2022-09-23T22:42:43.972Z,8.80
2022-09-23T22:45:12.465Z,10.43
2022-09-23T22:47:42.042Z,9.85
2022-09-23T22:50:09.869Z,9.15
2022-09-23T22:52:37.910Z,9.10
2022-09-23T22:55:07.935Z,9.07
2022-09-23T22:57:35.260Z,8.98
2022-09-23T23:00:04.958Z,8.30
2022-09-23T23:02:32.076Z,8.10
2022-09-23T23:05:00.495Z,8.85
2022-09-23T23:07:27.333Z,8.30
2022-09-23T23:09:54.313Z,8.57
2022-09-23T23:12:21.644Z,8.60
2022-09-23T23:14:49.655Z,8.60
2022-09-23T23:17:17.557Z,8.60
2022-09-23T23:19:45.114Z,7.40
2022-09-23T23:22:12.063Z,8.00
2022-09-23T23:24:38.958Z,7.60
2022-09-23T23:27:05.862Z,7.60
2022-09-23T23:29:32.698Z,7.93
2022-09-23T23:31:59.704Z,7.32
2022-09-23T23:34:26.552Z,8.35
2022-09-23T23:36:56.567Z,7.65
2022-09-23T23:39:24.993Z,8.73
2022-09-23T23:41:57.241Z,8.32
2022-09-23T23:44:26.360Z,8.82
2022-09-23T23:46:54.478Z,8.65
2022-09-23T23:49:22.128Z,8.85
2022-09-23T23:51:49.376Z,8.85
2022-09-23T23:54:16.544Z,8.70
2022-09-23T23:56:43.647Z,8.65
2022-09-23T23:59:11.290Z,7.72
